Time;durP1;ratioP1;P1;durP2;ratioP2;P2;SDS_P1;SDS_P2;PMS_P1;PMS_P2;Temp;Humidity;BMP_temperature;BMP_pressure;BME280_temperature;BME280_humidity;BME280_pressure;Samples;Min_cycle;Max_cycle;Signal;HPM_P1;HPM_P2
2021/09/03 00:02:23;;;;;;;11.23;8.07;;;14.80;99.90;;;;;;12508729;28;20489;-36
2021/09/03 00:08:27;;;;;;;10.70;8.05;;;14.80;99.90;;;;;;12515678;28;20042;-36
2021/09/03 00:14:29;;;;;;;11.80;8.20;;;14.70;99.90;;;;;;12513485;28;21822;-36
2021/09/03 00:20:31;;;;;;;12.07;8.10;;;14.70;99.90;;;;;;12497421;28;20044;-36
2021/09/03 00:26:33;;;;;;;15.45;8.77;;;14.70;99.90;;;;;;12515762;28;20048;-36
2021/09/03 00:32:35;;;;;;;17.83;8.93;;;14.60;99.90;;;;;;12501616;28;20044;-36
2021/09/03 00:38:37;;;;;;;18.13;9.25;;;14.50;99.90;;;;;;12509853;28;20084;-36
2021/09/03 00:44:39;;;;;;;13.63;9.02;;;14.40;99.90;;;;;;12510580;28;20049;-36
2021/09/03 00:50:41;;;;;;;12.13;8.25;;;14.40;99.90;;;;;;12511215;28;20098;-37
2021/09/03 00:56:45;;;;;;;11.73;8.68;;;14.40;99.90;;;;;;12510923;28;20057;-37
2021/09/03 01:02:47;;;;;;;20.90;9.18;;;14.40;99.90;;;;;;12510391;28;20144;-36
2021/09/03 01:08:49;;;;;;;10.68;7.68;;;14.30;99.90;;;;;;12507928;28;20490;-36
2021/09/03 01:14:51;;;;;;;12.13;7.63;;;14.30;99.90;;;;;;12505141;28;20541;-36
2021/09/03 01:20:53;;;;;;;15.25;8.85;;;14.20;99.90;;;;;;12512811;28;20052;-37
2021/09/03 01:26:55;;;;;;;12.73;8.20;;;14.20;99.90;;;;;;12510723;28;20061;-36
2021/09/03 01:32:57;;;;;;;12.88;8.18;;;14.10;99.90;;;;;;12511196;28;20057;-37
2021/09/03 01:39:00;;;;;;;12.15;8.32;;;14.10;99.90;;;;;;12503093;28;20607;-36
2021/09/03 01:45:03;;;;;;;10.88;8.00;;;14.00;99.90;;;;;;12510910;28;20073;-36
2021/09/03 01:51:06;;;;;;;17.20;10.30;;;13.90;99.90;;;;;;12515229;28;20049;-37
2021/09/03 01:57:08;;;;;;;14.75;9.18;;;13.90;99.90;;;;;;12505485;28;20539;-36
2021/09/03 02:03:10;;;;;;;12.55;8.35;;;13.80;99.90;;;;;;12507682;28;20075;-36
2021/09/03 02:09:12;;;;;;;13.00;7.72;;;13.80;99.90;;;;;;12505337;28;20855;-36
2021/09/03 02:15:14;;;;;;;14.77;9.07;;;13.70;99.90;;;;;;12486206;28;20110;-37
2021/09/03 02:21:16;;;;;;;14.35;10.30;;;13.70;99.90;;;;;;12508526;28;20130;-37
2021/09/03 02:27:18;;;;;;;12.93;9.52;;;13.60;99.90;;;;;;12510935;28;20087;-36
2021/09/03 02:33:19;;;;;;;15.30;9.50;;;13.60;99.90;;;;;;12515324;28;20124;-37
2021/09/03 02:39:21;;;;;;;15.35;8.30;;;13.70;99.90;;;;;;12521689;28;20052;-36
2021/09/03 02:45:23;;;;;;;13.48;9.05;;;13.70;99.90;;;;;;12523037;28;20424;-38
2021/09/03 02:51:25;;;;;;;19.25;10.65;;;13.60;99.90;;;;;;12523470;28;20049;-37
2021/09/03 02:57:27;;;;;;;13.80;10.45;;;13.50;99.90;;;;;;12516320;28;20049;-36
2021/09/03 03:03:29;;;;;;;18.08;11.10;;;13.50;99.90;;;;;;12500619;28;20045;-36
2021/09/03 03:09:31;;;;;;;17.50;11.77;;;13.50;99.90;;;;;;12521330;28;20044;-36
2021/09/03 03:15:33;;;;;;;17.48;11.00;;;13.30;99.90;;;;;;12522701;28;20162;-36
2021/09/03 03:21:37;;;;;;;15.65;11.18;;;13.30;99.90;;;;;;12523327;28;20041;-37
2021/09/03 03:27:39;;;;;;;19.10;10.35;;;13.40;99.90;;;;;;12511636;28;20052;-36
2021/09/03 03:33:51;;;;;;;16.83;11.25;;;13.30;99.90;;;;;;12517065;28;20049;-36
2021/09/03 03:39:53;;;;;;;17.88;11.13;;;13.40;99.90;;;;;;12523291;28;20433;-38
2021/09/03 03:45:55;;;;;;;15.52;11.68;;;13.40;99.90;;;;;;12522089;28;20061;-38
2021/09/03 03:51:57;;;;;;;17.83;12.07;;;13.40;99.90;;;;;;12519354;28;20075;-37
2021/09/03 03:57:59;;;;;;;18.42;11.77;;;13.20;99.90;;;;;;12508156;28;20085;-37
2021/09/03 04:04:01;;;;;;;15.38;12.23;;;13.20;99.90;;;;;;12519716;28;20131;-36
2021/09/03 04:10:05;;;;;;;15.50;10.65;;;13.20;99.90;;;;;;12518140;28;20100;-37
2021/09/03 04:16:06;;;;;;;17.70;11.80;;;13.30;99.90;;;;;;12508163;28;20077;-37
2021/09/03 04:22:09;;;;;;;12.50;8.80;;;13.30;99.90;;;;;;12513277;28;20045;-37
2021/09/03 04:28:11;;;;;;;15.40;9.27;;;13.30;99.90;;;;;;12512318;28;20829;-36
2021/09/03 04:34:13;;;;;;;13.73;9.10;;;13.30;99.90;;;;;;12506752;28;20045;-37
2021/09/03 04:40:17;;;;;;;11.75;8.65;;;13.20;99.90;;;;;;12513895;28;20379;-36
2021/09/03 04:46:20;;;;;;;14.20;9.55;;;13.10;99.90;;;;;;12513517;28;20045;-36
2021/09/03 04:52:22;;;;;;;12.93;9.65;;;13.10;99.90;;;;;;12524038;28;20048;-36
2021/09/03 04:58:25;;;;;;;14.40;9.98;;;13.00;99.90;;;;;;12509372;28;20057;-36
2021/09/03 05:04:27;;;;;;;18.52;10.93;;;12.90;99.90;;;;;;12512800;28;20088;-36
2021/09/03 05:10:30;;;;;;;15.73;10.85;;;12.90;99.90;;;;;;12514131;28;20041;-37
2021/09/03 05:16:32;;;;;;;15.07;9.73;;;12.90;99.90;;;;;;12512530;28;20086;-37
2021/09/03 05:22:35;;;;;;;46.50;11.05;;;12.90;99.90;;;;;;12507525;28;20049;-37
2021/09/03 05:28:40;;;;;;;28.60;10.98;;;12.70;99.90;;;;;;12504855;28;20052;-36
2021/09/03 05:34:43;;;;;;;15.18;11.32;;;12.60;99.90;;;;;;12498192;28;20055;-37
2021/09/03 05:40:45;;;;;;;14.82;10.88;;;12.60;99.90;;;;;;12510893;28;20056;-37
2021/09/03 05:46:47;;;;;;;19.15;10.82;;;12.70;99.90;;;;;;12507775;28;20473;-36
2021/09/03 05:52:52;;;;;;;29.77;10.50;;;12.70;99.90;;;;;;12510168;28;20045;-36
2021/09/03 05:58:57;;;;;;;21.35;10.45;;;12.80;99.90;;;;;;12492219;28;20064;-37
2021/09/03 06:04:59;;;;;;;20.58;7.38;;;12.90;99.90;;;;;;12521581;28;20053;-39
2021/09/03 06:11:04;;;;;;;9.75;7.78;;;13.00;99.90;;;;;;12528805;28;20049;-40
2021/09/03 06:17:08;;;;;;;11.25;9.00;;;12.90;99.90;;;;;;12516295;28;20091;-37
2021/09/03 06:23:10;;;;;;;10.65;8.85;;;12.90;99.90;;;;;;12526414;28;20076;-37
2021/09/03 06:29:36;;;;;;;13.15;10.23;;;13.00;99.90;;;;;;12525062;28;20149;-37
2021/09/03 06:35:34;;;;;;;13.98;11.10;;;13.00;99.90;;;;;;12521387;28;20049;-37
2021/09/03 06:41:36;;;;;;;14.25;10.93;;;13.00;99.90;;;;;;12524928;28;20079;-37
2021/09/03 06:47:38;;;;;;;17.50;11.52;;;13.10;99.90;;;;;;12526746;28;20116;-36
2021/09/03 06:53:40;;;;;;;16.73;11.07;;;13.00;99.90;;;;;;12526354;28;20052;-37
2021/09/03 06:59:43;;;;;;;15.95;11.23;;;13.20;99.90;;;;;;12506705;28;20052;-37
2021/09/03 07:05:46;;;;;;;15.40;10.65;;;13.30;99.90;;;;;;12501375;28;20143;-36
2021/09/03 07:11:48;;;;;;;16.90;11.15;;;13.50;99.90;;;;;;12519013;28;20432;-37
2021/09/03 07:17:50;;;;;;;14.73;10.85;;;13.40;99.90;;;;;;12520998;28;20580;-36
2021/09/03 07:23:52;;;;;;;14.45;10.82;;;13.60;99.90;;;;;;12517921;28;20041;-36
2021/09/03 07:29:54;;;;;;;14.35;10.50;;;13.70;99.90;;;;;;12516289;28;20390;-37
2021/09/03 07:35:59;;;;;;;20.85;12.10;;;13.80;99.90;;;;;;12516650;28;20086;-38
2021/09/03 07:42:02;;;;;;;15.75;11.27;;;13.90;99.90;;;;;;12515538;28;20052;-37
2021/09/03 07:48:05;;;;;;;16.60;12.68;;;14.00;99.90;;;;;;12527603;28;20086;-37
2021/09/03 07:54:07;;;;;;;16.42;12.65;;;14.20;99.90;;;;;;12517323;28;20094;-37
2021/09/03 08:00:11;;;;;;;17.05;12.18;;;14.30;99.90;;;;;;12515288;28;20148;-36
2021/09/03 08:06:13;;;;;;;17.60;12.82;;;14.40;99.90;;;;;;12518358;28;20061;-37
2021/09/03 08:12:16;;;;;;;19.63;13.63;;;14.70;99.90;;;;;;12499241;28;20496;-37
2021/09/03 08:18:18;;;;;;;18.13;13.82;;;14.80;99.90;;;;;;12519755;28;20477;-36
2021/09/03 08:24:22;;;;;;;20.77;14.20;;;15.00;99.90;;;;;;12516605;28;20092;-37
2021/09/03 08:30:26;;;;;;;19.42;13.65;;;15.20;99.90;;;;;;12511680;28;20064;-37
2021/09/03 08:36:29;;;;;;;26.98;15.50;;;15.30;99.90;;;;;;12513417;28;20098;-37
2021/09/03 08:42:31;;;;;;;21.23;14.57;;;15.60;99.90;;;;;;12507032;28;20064;-37
2021/09/03 08:48:34;;;;;;;19.20;14.90;;;15.60;99.90;;;;;;12509807;28;20053;-36
2021/09/03 08:54:37;;;;;;;20.05;15.32;;;15.80;99.90;;;;;;12505494;28;20052;-39
2021/09/03 09:00:40;;;;;;;19.27;13.40;;;16.20;99.90;;;;;;12506852;28;20128;-37
2021/09/03 09:07:05;;;;;;;17.42;12.40;;;16.30;99.90;;;;;;12505523;28;20519;-38
2021/09/03 09:13:14;;;;;;;;;;;16.60;99.90;;;;;;12505112;28;20140;-37
2021/09/03 09:19:16;;;;;;;22.65;13.50;;;16.50;99.90;;;;;;12502689;28;20047;-40
2021/09/03 09:25:27;;;;;;;22.30;13.13;;;16.90;99.90;;;;;;12507048;28;20505;-37
2021/09/03 09:31:37;;;;;;;18.40;11.88;;;17.10;99.90;;;;;;12507448;28;20136;-38
2021/09/03 09:37:50;;;;;;;19.63;11.75;;;17.10;99.90;;;;;;12522148;28;20053;-38
2021/09/03 09:43:52;;;;;;;15.93;9.77;;;17.40;99.90;;;;;;12516278;28;20094;-38
2021/09/03 09:49:55;;;;;;;21.60;11.35;;;17.80;99.90;;;;;;12513630;28;20152;-38
2021/09/03 09:55:57;;;;;;;17.73;11.55;;;18.00;99.90;;;;;;12520015;28;20068;-43
2021/09/03 10:02:02;;;;;;;18.08;9.90;;;18.00;99.90;;;;;;12529125;28;21464;-38
2021/09/03 10:08:07;;;;;;;19.35;10.85;;;18.30;99.90;;;;;;12519141;28;20064;-39
2021/09/03 10:14:12;;;;;;;15.57;9.02;;;18.40;99.90;;;;;;12522873;28;20155;-39
2021/09/03 10:20:17;;;;;;;18.08;9.73;;;18.80;99.90;;;;;;12524900;28;20444;-38
2021/09/03 10:26:29;;;;;;;19.58;11.88;;;19.30;99.90;;;;;;12519149;28;20125;-38
2021/09/03 10:32:35;;;;;;;17.60;10.55;;;19.40;99.90;;;;;;12518582;28;20098;-37
2021/09/03 10:38:42;;;;;;;13.63;9.40;;;19.50;99.90;;;;;;12519976;28;20076;-38
2021/09/03 10:45:05;;;;;;;13.25;9.80;;;19.80;99.90;;;;;;12504235;28;20061;-38
2021/09/03 10:51:08;;;;;;;17.25;9.88;;;20.20;99.90;;;;;;12521530;28;20056;-39
2021/09/03 10:57:16;;;;;;;15.18;9.18;;;20.20;99.90;;;;;;12524313;28;20412;-38
2021/09/03 11:03:37;;;;;;;16.05;8.60;;;20.30;99.90;;;;;;12516595;28;20060;-37
2021/09/03 11:09:46;;;;;;;17.77;9.32;;;20.50;99.90;;;;;;12506462;28;20072;-37
2021/09/03 11:15:51;;;;;;;11.38;7.20;;;20.80;99.90;;;;;;12513772;28;20052;-38
2021/09/03 11:22:04;;;;;;;13.13;7.82;;;20.90;99.90;;;;;;12521154;28;20053;-37
2021/09/03 11:28:06;;;;;;;10.90;8.07;;;20.80;99.90;;;;;;12521914;28;20223;-38
2021/09/03 11:34:09;;;;;;;14.18;7.75;;;21.40;99.90;;;;;;12498209;28;20054;-38
2021/09/03 11:40:24;;;;;;;10.70;5.85;;;21.60;99.90;;;;;;12519532;28;20053;-37
2021/09/03 11:46:27;;;;;;;13.05;6.10;;;21.50;99.90;;;;;;12515509;28;20143;-39
2021/09/03 11:52:31;;;;;;;10.95;6.15;;;21.90;99.90;;;;;;12511224;28;20037;-38
2021/09/03 11:58:35;;;;;;;15.07;7.43;;;22.00;99.90;;;;;;12515521;28;20051;-37
2021/09/03 12:04:41;;;;;;;17.15;7.18;;;22.10;99.90;;;;;;12521141;28;20552;-37
2021/09/03 12:10:49;;;;;;;8.75;5.40;;;21.80;99.90;;;;;;12514382;28;20036;-37
2021/09/03 12:16:51;;;;;;;11.00;6.90;;;22.30;99.90;;;;;;12518234;28;20094;-37
2021/09/03 12:23:14;;;;;;;11.18;6.10;;;22.50;99.90;;;;;;12517251;28;20049;-37
2021/09/03 12:29:21;;;;;;;11.05;7.15;;;22.60;99.90;;;;;;12524416;28;20049;-37
2021/09/03 12:35:33;;;;;;;13.13;6.72;;;23.00;99.90;;;;;;12519243;28;20052;-37
2021/09/03 12:41:44;;;;;;;12.20;7.20;;;23.00;99.90;;;;;;12519032;28;20049;-37
2021/09/03 12:48:03;;;;;;;9.63;4.93;;;23.10;99.90;;;;;;12512331;28;20064;-38
2021/09/03 12:54:08;;;;;;;12.20;5.60;;;23.40;99.90;;;;;;12516258;28;20052;-39
2021/09/03 13:00:12;;;;;;;11.30;6.47;;;23.80;99.90;;;;;;12514690;28;20048;-38
2021/09/03 13:06:14;;;;;;;10.53;6.50;;;23.60;99.90;;;;;;12521719;28;20064;-37
2021/09/03 13:12:16;;;;;;;12.85;5.78;;;23.60;99.90;;;;;;12515885;28;20044;-37
2021/09/03 13:18:19;;;;;;;12.10;5.73;;;23.90;99.90;;;;;;12519655;28;20053;-39
2021/09/03 13:24:26;;;;;;;9.85;5.68;;;23.90;99.90;;;;;;12517647;28;20045;-38
2021/09/03 13:30:28;;;;;;;21.15;9.77;;;24.10;99.90;;;;;;12514206;28;20056;-39
2021/09/03 13:36:33;;;;;;;12.02;7.15;;;24.10;99.90;;;;;;12517296;28;20128;-38
2021/09/03 13:42:35;;;;;;;10.18;6.07;;;23.90;99.90;;;;;;12521745;28;20473;-42
2021/09/03 13:48:37;;;;;;;12.55;6.32;;;23.40;99.90;;;;;;12516097;28;20063;-37
2021/09/03 13:54:44;;;;;;;12.30;7.13;;;23.20;99.90;;;;;;12510668;28;20136;-38
2021/09/03 14:00:46;;;;;;;11.32;6.90;;;23.40;99.90;;;;;;12501615;28;20124;-38
2021/09/03 14:06:51;;;;;;;15.57;6.95;;;23.30;99.90;;;;;;12520101;28;20053;-37
2021/09/03 14:12:54;;;;;;;11.25;5.32;;;23.30;99.90;;;;;;12521569;28;20045;-38
2021/09/03 14:18:56;;;;;;;10.98;5.63;;;23.20;99.90;;;;;;12498390;28;20057;-38
2021/09/03 14:24:59;;;;;;;8.15;4.65;;;23.30;99.90;;;;;;12522023;28;20838;-38
2021/09/03 14:31:02;;;;;;;8.70;4.28;;;23.10;99.90;;;;;;12505174;28;20060;-37
2021/09/03 14:37:05;;;;;;;12.90;5.18;;;23.40;99.90;;;;;;12522324;28;20079;-37
2021/09/03 14:43:08;;;;;;;8.98;4.60;;;23.70;99.90;;;;;;12523036;28;20063;-37
2021/09/03 14:49:11;;;;;;;8.05;4.43;;;24.00;99.90;;;;;;12520088;28;20081;-38
2021/09/03 14:55:13;;;;;;;20.23;5.30;;;24.20;99.90;;;;;;12509869;28;20092;-37
2021/09/03 15:01:16;;;;;;;8.48;4.88;;;24.60;99.90;;;;;;12504711;28;20107;-40
2021/09/03 15:07:18;;;;;;;13.57;5.57;;;24.80;99.90;;;;;;12518387;28;20083;-37
2021/09/03 15:13:22;;;;;;;10.50;6.15;;;24.40;99.90;;;;;;12514247;28;20127;-38
2021/09/03 15:19:24;;;;;;;7.60;4.13;;;24.40;99.90;;;;;;12518758;28;20144;-38
2021/09/03 15:25:26;;;;;;;12.57;7.13;;;24.60;99.90;;;;;;12518083;28;20144;-37
2021/09/03 15:31:45;;;;;;;10.75;6.93;;;24.40;99.90;;;;;;12505814;28;20136;-37
2021/09/03 15:37:47;;;;;;;10.43;6.57;;;24.00;99.90;;;;;;12518977;28;20048;-40
2021/09/03 15:43:50;;;;;;;12.57;7.88;;;24.00;99.90;;;;;;12516630;28;20045;-37
2021/09/03 15:49:52;;;;;;;11.98;7.07;;;24.20;99.90;;;;;;12516523;28;20087;-37
2021/09/03 15:55:56;;;;;;;15.52;8.57;;;24.30;99.90;;;;;;12521542;28;20052;-37
2021/09/03 16:01:58;;;;;;;13.60;9.23;;;24.20;99.90;;;;;;12515514;28;20045;-38
2021/09/03 16:08:01;;;;;;;15.33;8.83;;;24.00;99.90;;;;;;12515345;28;20057;-38
2021/09/03 16:14:03;;;;;;;16.65;8.98;;;23.90;99.90;;;;;;12516704;28;20349;-37
2021/09/03 16:20:08;;;;;;;15.98;9.32;;;23.90;99.90;;;;;;12510630;28;20670;-37
2021/09/03 16:26:10;;;;;;;16.02;9.13;;;23.90;99.90;;;;;;12504924;28;20056;-38
2021/09/03 16:32:12;;;;;;;15.18;7.93;;;23.70;99.90;;;;;;12506423;28;20037;-37
2021/09/03 16:38:14;;;;;;;13.52;7.68;;;23.50;99.90;;;;;;12506061;28;20084;-37
2021/09/03 16:44:19;;;;;;;15.65;7.95;;;23.40;99.90;;;;;;12512690;28;20049;-38
2021/09/03 16:50:22;;;;;;;16.77;8.80;;;23.10;99.90;;;;;;12511649;28;20046;-36
2021/09/03 16:56:23;;;;;;;13.40;7.78;;;22.70;99.90;;;;;;12510231;28;20063;-37
2021/09/03 17:02:25;;;;;;;13.10;7.60;;;22.50;99.90;;;;;;12506235;28;20489;-38
2021/09/03 17:08:28;;;;;;;16.42;9.25;;;22.20;99.90;;;;;;12509881;28;20049;-38
2021/09/03 17:14:32;;;;;;;19.95;10.20;;;21.70;99.90;;;;;;12502443;28;20041;-37
2021/09/03 17:20:34;;;;;;;19.02;9.60;;;21.40;99.90;;;;;;12504592;28;20386;-37
2021/09/03 17:26:37;;;;;;;20.85;10.25;;;20.90;99.90;;;;;;12497569;28;20053;-37
2021/09/03 17:32:40;;;;;;;16.98;10.35;;;20.70;99.90;;;;;;12501408;28;20423;-38
2021/09/03 17:38:42;;;;;;;19.57;11.33;;;20.60;99.90;;;;;;12508887;28;20475;-39
2021/09/03 17:44:44;;;;;;;20.98;10.95;;;20.40;99.90;;;;;;12497183;28;20053;-41
2021/09/03 17:50:46;;;;;;;17.20;11.18;;;20.10;99.90;;;;;;12507880;28;20505;-37
2021/09/03 17:56:48;;;;;;;18.25;10.60;;;19.90;99.90;;;;;;12512074;28;20806;-37
2021/09/03 18:02:51;;;;;;;19.85;11.07;;;19.60;99.90;;;;;;12514697;28;20102;-37
2021/09/03 18:08:53;;;;;;;18.83;10.77;;;19.70;99.90;;;;;;12523025;28;20045;-41
2021/09/03 18:15:00;;;;;;;18.50;11.07;;;19.60;99.90;;;;;;12518780;28;20524;-37
2021/09/03 18:21:07;;;;;;;18.52;11.63;;;19.40;99.90;;;;;;12512113;28;20050;-41
2021/09/03 18:27:09;;;;;;;19.73;12.18;;;19.20;99.90;;;;;;12514020;28;20045;-37
2021/09/03 18:33:12;;;;;;;19.42;11.52;;;19.10;99.90;;;;;;12516600;28;20044;-37
2021/09/03 18:39:14;;;;;;;21.97;11.23;;;19.00;99.90;;;;;;12515449;28;20045;-37
2021/09/03 18:45:16;;;;;;;20.50;11.90;;;18.80;99.90;;;;;;12517941;28;20053;-37
2021/09/03 18:51:18;;;;;;;18.60;12.32;;;18.60;99.90;;;;;;12513477;28;20072;-37
2021/09/03 18:57:20;;;;;;;17.88;11.45;;;18.40;99.90;;;;;;12519535;28;20045;-39
2021/09/03 19:03:22;;;;;;;19.73;11.38;;;18.20;99.90;;;;;;12514975;28;20049;-36
2021/09/03 19:09:24;;;;;;;19.15;11.32;;;18.10;99.90;;;;;;12517058;28;20056;-37
2021/09/03 19:15:27;;;;;;;19.02;11.65;;;17.90;99.90;;;;;;12516415;28;20072;-37
2021/09/03 19:21:29;;;;;;;23.35;11.40;;;17.80;99.90;;;;;;12518966;28;20516;-37
2021/09/03 19:27:32;;;;;;;18.25;11.45;;;17.70;99.90;;;;;;12516290;28;20056;-37
2021/09/03 19:33:34;;;;;;;21.42;11.65;;;17.60;99.90;;;;;;12517449;28;20140;-37
2021/09/03 19:39:36;;;;;;;19.30;11.70;;;17.50;99.90;;;;;;12512642;28;20045;-37
2021/09/03 19:45:38;;;;;;;17.70;11.07;;;17.50;99.90;;;;;;12516601;28;20659;-37
2021/09/03 19:51:43;;;;;;;23.83;12.00;;;17.20;99.90;;;;;;12517619;28;20413;-36
2021/09/03 19:57:46;;;;;;;16.67;10.57;;;17.00;99.90;;;;;;12501123;28;20493;-37
2021/09/03 20:03:48;;;;;;;20.85;11.70;;;17.00;99.90;;;;;;12506291;28;20049;-36
2021/09/03 20:09:50;;;;;;;23.00;12.48;;;16.90;99.90;;;;;;12507057;28;20072;-37
2021/09/03 20:15:52;;;;;;;24.67;14.13;;;16.60;99.90;;;;;;12506889;28;20045;-37
2021/09/03 20:21:54;;;;;;;20.90;13.45;;;16.40;99.90;;;;;;12513056;28;20049;-37
2021/09/03 20:27:56;;;;;;;22.13;13.75;;;16.50;99.90;;;;;;12514739;28;20057;-37
2021/09/03 20:34:01;;;;;;;20.63;13.40;;;16.70;99.90;;;;;;12519703;28;20098;-37
2021/09/03 20:40:10;;;;;;;26.77;14.30;;;16.80;99.90;;;;;;12512462;28;20064;-37
2021/09/03 20:46:12;;;;;;;;;;;16.80;99.90;;;;;;12500667;28;20061;-36
2021/09/03 20:52:13;;;;;;;24.52;13.05;;;16.80;99.90;;;;;;12513906;28;20293;-36
2021/09/03 20:58:15;;;;;;;24.45;14.23;;;16.60;99.90;;;;;;12515121;28;20103;-38
2021/09/03 21:04:17;;;;;;;25.48;14.05;;;16.60;99.90;;;;;;12513236;28;20049;-36
2021/09/03 21:10:19;;;;;;;24.17;14.07;;;16.40;99.90;;;;;;12516559;28;20424;-39
2021/09/03 21:16:21;;;;;;;22.20;14.43;;;16.40;99.90;;;;;;12517938;28;20194;-38
2021/09/03 21:22:25;;;;;;;25.45;14.77;;;16.30;99.90;;;;;;12511923;28;20493;-37
2021/09/03 21:28:29;;;;;;;19.75;13.10;;;16.10;99.90;;;;;;12506587;28;20417;-37
2021/09/03 21:34:35;;;;;;;24.50;14.45;;;16.20;99.90;;;;;;12533533;28;20438;-36
2021/09/03 21:40:37;;;;;;;25.45;15.02;;;16.10;99.90;;;;;;12529219;28;20615;-36
2021/09/03 21:46:39;;;;;;;21.95;13.98;;;16.00;99.90;;;;;;12531278;28;20520;-37
2021/09/03 21:52:42;;;;;;;21.17;13.77;;;16.00;99.90;;;;;;12533747;28;20053;-36
2021/09/03 21:58:44;;;;;;;22.60;13.68;;;15.90;99.90;;;;;;12531171;28;20090;-36
2021/09/03 22:04:46;;;;;;;24.45;14.10;;;15.80;99.90;;;;;;12515735;28;20068;-36
2021/09/03 22:10:49;;;;;;;22.20;14.57;;;15.70;99.90;;;;;;12522286;28;20077;-36
2021/09/03 22:16:51;;;;;;;22.85;14.45;;;15.70;99.90;;;;;;12522789;28;20044;-36
2021/09/03 22:22:53;;;;;;;23.23;13.27;;;15.60;99.90;;;;;;12527784;28;20512;-36
2021/09/03 22:28:55;;;;;;;21.52;14.25;;;15.50;99.90;;;;;;12528960;28;20526;-36
2021/09/03 22:34:59;;;;;;;24.00;14.55;;;15.20;99.90;;;;;;12522908;28;20057;-36
2021/09/03 22:41:01;;;;;;;26.35;13.63;;;14.90;99.90;;;;;;12526894;28;20048;-36
2021/09/03 22:47:06;;;;;;;21.88;13.82;;;14.80;99.90;;;;;;12523168;28;20191;-36
2021/09/03 22:53:09;;;;;;;26.55;14.68;;;14.80;99.90;;;;;;12516332;28;20489;-36
2021/09/03 22:59:11;;;;;;;25.25;13.82;;;15.10;99.90;;;;;;12522901;28;20045;-36
2021/09/03 23:05:13;;;;;;;20.05;13.60;;;15.20;99.90;;;;;;12516949;28;20056;-36
2021/09/03 23:11:18;;;;;;;20.58;14.25;;;15.20;99.90;;;;;;12518491;28;20072;-36
2021/09/03 23:17:20;;;;;;;19.58;13.27;;;15.10;99.90;;;;;;12519084;28;20050;-36
2021/09/03 23:23:24;;;;;;;22.65;13.95;;;15.00;99.90;;;;;;12515947;28;20067;-36
2021/09/03 23:29:26;;;;;;;21.70;13.57;;;14.90;99.90;;;;;;12525152;28;20048;-36
2021/09/03 23:35:28;;;;;;;25.10;14.88;;;14.90;99.90;;;;;;12512795;28;20052;-36
2021/09/03 23:41:30;;;;;;;26.38;15.13;;;14.90;99.90;;;;;;12521415;28;20131;-36
2021/09/03 23:47:32;;;;;;;23.27;14.30;;;14.80;99.90;;;;;;12517256;28;20048;-36
2021/09/03 23:53:34;;;;;;;28.90;16.42;;;14.70;99.90;;;;;;12515898;28;20041;-36
2021/09/03 23:59:36;;;;;;;32.15;18.73;;;14.60;99.90;;;;;;12513370;28;20507;-36
